createdAt,value
2017-10-26T00:02:23.056Z,101619
2017-10-26T00:04:51.176Z,101626
2017-10-26T00:07:20.052Z,101627
2017-10-26T00:09:48.927Z,101642
2017-10-26T00:12:17.052Z,101631
2017-10-26T00:14:45.512Z,101630
2017-10-26T00:17:14.420Z,101631
2017-10-26T00:19:42.610Z,101624
2017-10-26T00:22:10.791Z,101632
2017-10-26T00:24:38.968Z,101630
2017-10-26T00:27:07.118Z,101634
2017-10-26T00:29:35.243Z,101628
2017-10-26T00:32:03.418Z,101634
2017-10-26T00:34:31.543Z,101640
2017-10-26T00:36:59.687Z,101650
2017-10-26T00:39:28.279Z,101650
2017-10-26T00:41:57.164Z,101650
2017-10-26T00:44:26.083Z,101642
2017-10-26T00:46:54.206Z,101644
2017-10-26T00:49:22.368Z,101639
2017-10-26T00:51:50.508Z,101641
2017-10-26T00:54:18.635Z,101632
2017-10-26T00:56:46.800Z,101646
2017-10-26T00:59:14.952Z,101651
2017-10-26T01:01:43.480Z,101654
2017-10-26T01:04:11.662Z,101644
2017-10-26T01:06:40.591Z,101646
2017-10-26T01:09:08.737Z,101640
2017-10-26T01:11:36.880Z,101644
2017-10-26T01:14:05.048Z,101645
2017-10-26T01:16:33.188Z,101645
2017-10-26T01:19:01.339Z,101644
2017-10-26T01:21:29.504Z,101641
2017-10-26T01:23:58.149Z,101642
2017-10-26T01:26:27.796Z,101657
2017-10-26T01:28:55.976Z,101655
2017-10-26T01:31:24.485Z,101649
2017-10-26T01:33:52.720Z,101656
2017-10-26T01:36:21.729Z,101660
2017-10-26T01:38:49.951Z,101662
2017-10-26T01:41:18.902Z,101645
2017-10-26T01:43:47.095Z,101638
2017-10-26T01:46:15.303Z,101647
2017-10-26T01:48:43.517Z,101650
2017-10-26T01:51:12.047Z,101647
2017-10-26T01:53:40.259Z,101647
2017-10-26T01:56:09.301Z,101654
2017-10-26T01:58:37.504Z,101659
2017-10-26T02:01:05.712Z,101655
2017-10-26T02:03:34.278Z,101663
2017-10-26T02:06:02.507Z,101664
2017-10-26T02:08:30.723Z,101651
2017-10-26T02:10:58.907Z,101639
2017-10-26T02:13:27.069Z,101651
2017-10-26T02:15:56.464Z,101640
2017-10-26T02:18:24.712Z,101648
2017-10-26T02:20:52.936Z,101638
2017-10-26T02:23:21.904Z,101627
2017-10-26T02:25:51.588Z,101617
2017-10-26T02:28:21.408Z,101620
2017-10-26T02:31:56.140Z,101631
2017-10-26T02:34:24.582Z,101631
2017-10-26T02:36:52.744Z,101637
2017-10-26T02:39:20.912Z,101634
2017-10-26T02:41:49.804Z,101633
2017-10-26T02:44:18.672Z,101639
2017-10-26T02:46:46.815Z,101629
2017-10-26T02:49:14.956Z,101624
2017-10-26T02:51:43.112Z,101633
2017-10-26T02:54:12.004Z,101645
2017-10-26T02:56:41.373Z,101640
2017-10-26T02:59:09.509Z,101637
2017-10-26T03:01:37.680Z,101621
2017-10-26T03:04:05.892Z,101614
2017-10-26T03:06:34.060Z,101617
2017-10-26T03:09:02.272Z,101655
2017-10-26T03:11:30.420Z,101642
2017-10-26T03:13:58.567Z,101647
2017-10-26T03:16:26.754Z,101638
2017-10-26T03:18:54.900Z,101636
2017-10-26T03:21:23.355Z,101642
2017-10-26T03:23:51.471Z,101645
2017-10-26T03:26:19.581Z,101646
2017-10-26T03:28:48.864Z,101640
2017-10-26T03:31:16.997Z,101619
2017-10-26T03:33:45.119Z,101629
2017-10-26T03:36:13.231Z,101638
2017-10-26T03:38:41.359Z,101642
2017-10-26T03:41:09.464Z,101654
2017-10-26T03:43:38.320Z,101670
2017-10-26T03:46:06.460Z,101667
2017-10-26T03:48:34.571Z,101661
2017-10-26T03:51:02.712Z,101651
2017-10-26T03:53:30.818Z,101647
2017-10-26T03:55:58.955Z,101665
2017-10-26T03:58:27.428Z,101667
2017-10-26T04:00:55.551Z,101667
2017-10-26T04:03:23.685Z,101648
2017-10-26T04:05:51.812Z,101638
2017-10-26T04:08:19.946Z,101645
2017-10-26T04:10:48.051Z,101653
2017-10-26T04:13:16.157Z,101649
2017-10-26T04:15:44.281Z,101636
2017-10-26T04:18:12.391Z,101632
2017-10-26T04:20:41.259Z,101629
2017-10-26T04:23:09.449Z,101623
2017-10-26T04:25:37.631Z,101613
2017-10-26T04:28:06.595Z,101602
2017-10-26T04:30:35.079Z,101612
2017-10-26T04:33:03.368Z,101617
2017-10-26T04:35:31.578Z,101606
2017-10-26T04:37:59.746Z,101590
2017-10-26T04:40:27.879Z,101587
2017-10-26T04:42:56.774Z,101580
2017-10-26T04:45:25.191Z,101590
2017-10-26T04:47:53.319Z,101615
2017-10-26T04:50:21.448Z,101631
2017-10-26T04:52:49.565Z,101621
2017-10-26T04:55:17.687Z,101616
2017-10-26T04:57:45.792Z,101631
2017-10-26T05:00:13.915Z,101623
2017-10-26T05:02:42.780Z,101619
2017-10-26T05:05:10.903Z,101616
2017-10-26T05:07:39.015Z,101630
2017-10-26T05:10:07.428Z,101624
2017-10-26T05:12:36.291Z,101608
2017-10-26T05:15:04.712Z,101615
2017-10-26T05:17:32.830Z,101615
2017-10-26T05:20:00.929Z,101628
2017-10-26T05:22:29.049Z,101614
2017-10-26T05:24:57.165Z,101609
2017-10-26T05:27:25.283Z,101603
2017-10-26T05:29:53.395Z,101599
2017-10-26T05:32:21.651Z,101586
2017-10-26T05:34:49.816Z,101592
2017-10-26T05:37:17.989Z,101594
2017-10-26T05:39:46.119Z,101613
2017-10-26T05:42:14.302Z,101578
2017-10-26T05:44:42.579Z,101578
2017-10-26T05:47:10.731Z,101595
2017-10-26T05:49:39.048Z,101601
2017-10-26T05:52:08.358Z,101601
2017-10-26T05:54:36.500Z,101594
2017-10-26T05:57:05.431Z,101603
2017-10-26T05:59:33.563Z,101606
2017-10-26T06:02:01.699Z,101594
2017-10-26T06:04:29.845Z,101597
2017-10-26T06:06:57.941Z,101598
2017-10-26T06:09:26.068Z,101581
2017-10-26T06:11:54.912Z,101598
2017-10-26T06:14:23.084Z,101622
2017-10-26T06:16:51.221Z,101609
2017-10-26T06:19:19.331Z,101615
2017-10-26T06:21:47.463Z,101617
2017-10-26T06:24:16.323Z,101609
2017-10-26T06:26:44.460Z,101619
2017-10-26T06:29:12.600Z,101592
2017-10-26T06:31:40.724Z,101606
2017-10-26T06:34:09.215Z,101626
2017-10-26T06:36:37.349Z,101617
2017-10-26T06:39:05.467Z,101607
2017-10-26T06:41:33.593Z,101618
2017-10-26T06:44:01.748Z,101630
2017-10-26T06:46:29.887Z,101622
2017-10-26T06:48:58.053Z,101615
2017-10-26T06:51:26.335Z,101617
2017-10-26T06:53:54.462Z,101615
2017-10-26T06:56:22.612Z,101620
2017-10-26T06:58:50.735Z,101601
2017-10-26T07:01:18.864Z,101621
2017-10-26T07:03:47.732Z,101620
2017-10-26T07:06:15.856Z,101634
2017-10-26T07:08:44.140Z,101635
2017-10-26T07:11:12.277Z,101623
2017-10-26T07:13:40.506Z,101623
2017-10-26T07:16:08.620Z,101625
2017-10-26T07:18:36.980Z,101635
2017-10-26T07:21:05.092Z,101620
2017-10-26T07:23:33.242Z,101627
2017-10-26T07:26:01.428Z,101628
2017-10-26T07:28:30.296Z,101623
2017-10-26T07:30:58.722Z,101618
2017-10-26T07:33:26.864Z,101619
2017-10-26T07:35:55.969Z,101622
2017-10-26T07:38:24.227Z,101609
2017-10-26T07:40:53.175Z,101624
2017-10-26T07:43:21.345Z,101626
2017-10-26T07:45:49.547Z,101632
2017-10-26T07:48:18.188Z,101634
2017-10-26T07:50:46.339Z,101622
2017-10-26T07:53:14.475Z,101616
2017-10-26T07:55:42.672Z,101623
2017-10-26T07:58:10.789Z,101617
2017-10-26T08:00:39.064Z,101606
2017-10-26T08:03:07.204Z,101609
2017-10-26T08:05:36.139Z,101613
2017-10-26T08:08:04.291Z,101626
2017-10-26T08:10:32.432Z,101617
2017-10-26T08:13:00.580Z,101631
2017-10-26T08:15:28.779Z,101621
2017-10-26T08:17:56.935Z,101625
2017-10-26T08:20:25.169Z,101623
2017-10-26T08:22:53.375Z,101621
2017-10-26T08:25:21.675Z,101616
2017-10-26T08:27:50.205Z,101615
2017-10-26T08:30:18.379Z,101604
2017-10-26T08:32:46.676Z,101601
2017-10-26T08:35:14.850Z,101605
2017-10-26T08:37:43.081Z,101607
2017-10-26T08:40:12.036Z,101606
2017-10-26T08:42:40.205Z,101605
2017-10-26T08:45:08.408Z,101608
2017-10-26T08:47:38.036Z,101603
2017-10-26T08:50:07.071Z,101600
2017-10-26T08:52:35.555Z,101600
2017-10-26T08:55:03.769Z,101596
2017-10-26T08:57:32.748Z,101594
2017-10-26T09:00:00.955Z,101590
2017-10-26T09:02:29.168Z,101583
2017-10-26T09:04:57.380Z,101586
2017-10-26T09:07:25.575Z,101591
2017-10-26T09:09:53.792Z,101593
2017-10-26T09:12:22.010Z,101600
2017-10-26T09:14:51.049Z,101609
2017-10-26T09:17:19.675Z,101613
2017-10-26T09:19:47.876Z,101605
2017-10-26T09:22:16.803Z,101598
2017-10-26T09:24:45.037Z,101603
2017-10-26T09:27:13.500Z,101585
2017-10-26T09:29:41.699Z,101589
2017-10-26T09:32:10.643Z,101589
2017-10-26T09:34:38.887Z,101586
2017-10-26T09:37:07.114Z,101587
2017-10-26T09:39:35.913Z,101588
2017-10-26T09:42:04.363Z,101595
2017-10-26T09:44:32.588Z,101592
2017-10-26T09:47:00.855Z,101597
2017-10-26T09:49:30.554Z,101597
2017-10-26T09:51:58.782Z,101591
2017-10-26T09:54:26.991Z,101598
2017-10-26T09:56:55.164Z,101605
2017-10-26T09:59:23.395Z,101598
2017-10-26T10:01:51.964Z,101600
2017-10-26T10:04:20.467Z,101600
2017-10-26T10:06:48.684Z,101600
2017-10-26T10:09:16.951Z,101594
2017-10-26T10:11:45.235Z,101585
2017-10-26T10:14:13.600Z,101583
2017-10-26T10:16:41.812Z,101587
2017-10-26T10:19:11.459Z,101580
2017-10-26T10:21:39.626Z,101583
2017-10-26T10:24:07.880Z,101583
2017-10-26T10:26:36.928Z,101585
2017-10-26T10:29:05.162Z,101583
2017-10-26T10:31:34.115Z,101581
2017-10-26T10:34:02.332Z,101576
2017-10-26T10:36:31.264Z,101582
2017-10-26T10:38:59.457Z,101575
2017-10-26T10:41:29.312Z,101584
2017-10-26T10:43:57.587Z,101574
2017-10-26T10:46:25.780Z,101569
2017-10-26T10:48:54.412Z,101573
2017-10-26T10:51:22.625Z,101571
2017-10-26T10:53:50.839Z,101576
2017-10-26T10:56:19.068Z,101582
2017-10-26T10:58:48.069Z,101576
2017-10-26T11:01:16.271Z,101565
2017-10-26T11:03:44.789Z,101568
2017-10-26T11:06:13.041Z,101563
2017-10-26T11:08:41.272Z,101548
2017-10-26T11:11:10.632Z,101563
2017-10-26T11:13:38.811Z,101555
2017-10-26T11:16:07.051Z,101551
2017-10-26T11:18:35.270Z,101552
2017-10-26T11:21:03.516Z,101543
2017-10-26T11:23:32.100Z,101543
2017-10-26T11:26:00.283Z,101540
2017-10-26T11:28:28.491Z,101543
2017-10-26T11:30:56.746Z,101531
2017-10-26T11:33:24.957Z,101540
2017-10-26T11:35:53.189Z,101539
2017-10-26T11:38:21.404Z,101539
2017-10-26T11:40:50.363Z,101533
2017-10-26T11:43:18.580Z,101542
2017-10-26T11:45:47.538Z,101540
2017-10-26T11:48:16.043Z,101540
2017-10-26T11:50:44.288Z,101544
2017-10-26T11:53:12.503Z,101546
2017-10-26T11:55:41.496Z,101533
2017-10-26T11:58:09.709Z,101525
2017-10-26T12:00:37.997Z,101531
2017-10-26T12:03:06.328Z,101519
2017-10-26T12:05:34.531Z,101521
2017-10-26T12:08:02.735Z,101521
2017-10-26T12:10:30.948Z,101511
2017-10-26T12:12:59.619Z,101517
2017-10-26T12:15:29.300Z,101528
2017-10-26T12:17:57.524Z,101522
2017-10-26T12:20:26.468Z,101528
2017-10-26T12:22:54.640Z,101527
2017-10-26T12:25:22.856Z,101519
2017-10-26T12:27:51.081Z,101519
2017-10-26T12:30:19.965Z,101503
2017-10-26T12:32:48.193Z,101506
2017-10-26T12:35:16.451Z,101504
2017-10-26T12:37:44.671Z,101503
2017-10-26T12:40:12.880Z,101493
2017-10-26T12:42:41.072Z,101487
2017-10-26T12:45:09.270Z,101496
2017-10-26T12:47:38.929Z,101491
2017-10-26T12:50:07.131Z,101498
2017-10-26T12:52:35.313Z,101498
2017-10-26T12:55:03.520Z,101495
2017-10-26T12:57:32.472Z,101510
2017-10-26T13:00:00.691Z,101501
2017-10-26T13:02:29.624Z,101504
2017-10-26T13:04:57.855Z,101501
2017-10-26T13:07:26.136Z,101508
2017-10-26T13:09:55.091Z,101504
2017-10-26T13:12:23.312Z,101498
2017-10-26T13:14:52.311Z,101494
2017-10-26T13:17:20.557Z,101487
2017-10-26T13:19:50.330Z,101490
2017-10-26T13:22:18.544Z,101491
2017-10-26T13:24:47.035Z,101477
2017-10-26T13:27:15.251Z,101485
2017-10-26T13:29:43.464Z,101483
2017-10-26T13:32:11.627Z,101481
2017-10-26T13:34:39.811Z,101474
2017-10-26T13:37:07.996Z,101469
2017-10-26T13:39:36.175Z,101473
2017-10-26T13:42:04.359Z,101471
2017-10-26T13:44:32.539Z,101472
2017-10-26T13:47:00.986Z,101456
2017-10-26T13:49:29.184Z,101466
2017-10-26T13:51:57.319Z,101455
2017-10-26T13:54:25.493Z,101464
2017-10-26T13:56:53.920Z,101467
2017-10-26T13:59:22.799Z,101467
2017-10-26T14:01:50.982Z,101451
2017-10-26T14:04:19.156Z,101466
2017-10-26T14:06:48.080Z,101464
2017-10-26T14:09:16.240Z,101471
2017-10-26T14:11:44.379Z,101468
2017-10-26T14:14:13.286Z,101467
2017-10-26T14:16:42.195Z,101433
2017-10-26T14:19:11.056Z,101468
2017-10-26T14:21:39.196Z,101464
2017-10-26T14:24:07.328Z,101464
2017-10-26T14:26:35.461Z,101458
2017-10-26T14:29:03.922Z,101453
2017-10-26T14:31:33.528Z,101456
2017-10-26T14:34:01.718Z,101456
2017-10-26T14:36:30.393Z,101456
2017-10-26T14:38:58.512Z,101454
2017-10-26T14:41:27.366Z,101459
2017-10-26T14:43:55.841Z,101452
2017-10-26T14:46:23.962Z,101452
2017-10-26T14:48:52.856Z,101449
2017-10-26T14:51:21.743Z,101444
2017-10-26T14:53:50.995Z,101454
2017-10-26T14:56:19.190Z,101451
2017-10-26T14:58:47.359Z,101442
2017-10-26T15:01:15.496Z,101444
2017-10-26T15:03:43.635Z,101438
2017-10-26T15:06:11.779Z,101438
2017-10-26T15:08:40.016Z,101441
2017-10-26T15:11:08.295Z,101435
2017-10-26T15:13:36.443Z,101437
2017-10-26T15:16:05.324Z,101436
2017-10-26T15:18:34.217Z,101436
2017-10-26T15:21:03.132Z,101433
2017-10-26T15:23:31.268Z,101435
2017-10-26T15:25:59.422Z,101434
2017-10-26T15:28:27.556Z,101437
2017-10-26T15:30:55.688Z,101436
2017-10-26T15:33:23.840Z,101438
2017-10-26T15:35:51.979Z,101433
2017-10-26T15:38:20.128Z,101433
2017-10-26T15:40:48.245Z,101434
2017-10-26T15:43:16.368Z,101429
2017-10-26T15:45:45.261Z,101432
2017-10-26T15:48:14.580Z,101435
2017-10-26T15:50:42.731Z,101434
2017-10-26T15:53:10.868Z,101427
2017-10-26T15:55:39.028Z,101418
2017-10-26T15:58:07.171Z,101420
2017-10-26T16:00:35.316Z,101410
2017-10-26T16:03:03.465Z,101416
2017-10-26T16:05:31.630Z,101423
2017-10-26T16:08:00.163Z,101420
2017-10-26T16:10:29.086Z,101425
2017-10-26T16:12:57.251Z,101411
2017-10-26T16:15:25.492Z,101415
2017-10-26T16:17:53.607Z,101417
2017-10-26T16:20:21.727Z,101419
2017-10-26T16:22:49.870Z,101409
2017-10-26T16:25:17.996Z,101394
2017-10-26T16:27:46.870Z,101403
2017-10-26T16:30:15.012Z,101400
2017-10-26T16:32:43.166Z,101398
2017-10-26T16:35:11.297Z,101397
2017-10-26T16:37:39.412Z,101398
2017-10-26T16:40:07.551Z,101399
2017-10-26T16:42:36.156Z,101408
2017-10-26T16:45:04.299Z,101388
2017-10-26T16:47:33.907Z,101386
2017-10-26T16:50:02.052Z,101375
2017-10-26T16:52:30.242Z,101384
2017-10-26T16:54:58.412Z,101383
2017-10-26T16:57:26.556Z,101379
2017-10-26T16:59:54.694Z,101376
2017-10-26T17:02:24.028Z,101382
2017-10-26T17:04:52.381Z,101380
2017-10-26T17:07:20.499Z,101387
2017-10-26T17:09:48.627Z,101385
2017-10-26T17:12:17.512Z,101393
2017-10-26T17:14:46.399Z,101396
2017-10-26T17:17:15.252Z,101388
2017-10-26T17:19:43.804Z,101391
2017-10-26T17:22:11.944Z,101391
2017-10-26T17:24:40.076Z,101368
2017-10-26T17:27:08.197Z,101374
2017-10-26T17:29:37.088Z,101365
2017-10-26T17:32:06.015Z,101366
2017-10-26T17:34:34.172Z,101374
2017-10-26T17:37:02.352Z,101384
2017-10-26T17:39:30.496Z,101374
2017-10-26T17:41:58.611Z,101360
2017-10-26T17:44:26.739Z,101372
2017-10-26T17:46:55.837Z,101373
2017-10-26T17:49:24.975Z,101369
2017-10-26T17:51:53.085Z,101374
2017-10-26T17:54:23.555Z,101377
2017-10-26T17:56:51.720Z,101384
2017-10-26T17:59:19.852Z,101377
2017-10-26T18:01:48.007Z,101383
2017-10-26T18:04:16.388Z,101384
2017-10-26T18:06:44.550Z,101377
2017-10-26T18:09:12.720Z,101375
2017-10-26T18:11:40.848Z,101377
2017-10-26T18:14:08.991Z,101372
2017-10-26T18:16:37.159Z,101364
2017-10-26T18:19:05.344Z,101366
2017-10-26T18:21:33.784Z,101373
2017-10-26T18:24:01.932Z,101361
2017-10-26T18:26:30.083Z,101365
2017-10-26T18:28:58.224Z,101369
2017-10-26T18:31:26.367Z,101369
2017-10-26T18:33:54.504Z,101356
2017-10-26T18:36:22.660Z,101369
2017-10-26T18:38:50.807Z,101363
2017-10-26T18:41:18.953Z,101350
2017-10-26T18:43:47.129Z,101352
2017-10-26T18:46:15.284Z,101343
2017-10-26T18:48:43.419Z,101359
2017-10-26T18:51:11.586Z,101345
2017-10-26T18:53:39.738Z,101341
2017-10-26T18:56:08.620Z,101350
2017-10-26T18:58:37.518Z,101349
2017-10-26T19:01:06.404Z,101351
2017-10-26T19:03:35.283Z,101340
2017-10-26T19:06:04.166Z,101352
2017-10-26T19:08:32.657Z,101342
2017-10-26T19:11:01.523Z,101348
2017-10-26T19:13:29.662Z,101343
2017-10-26T19:15:57.972Z,101336
2017-10-26T19:18:26.103Z,101325
2017-10-26T19:20:54.233Z,101347
2017-10-26T19:23:22.348Z,101322
2017-10-26T19:25:50.804Z,101338
2017-10-26T19:28:19.680Z,101335
2017-10-26T19:30:47.833Z,101340
2017-10-26T19:33:16.032Z,101322
2017-10-26T19:35:44.918Z,101335
2017-10-26T19:38:13.419Z,101338
2017-10-26T19:40:42.416Z,101344
2017-10-26T19:43:10.734Z,101351
2017-10-26T19:45:38.925Z,101335
2017-10-26T19:48:07.088Z,101348
2017-10-26T19:50:35.299Z,101333
2017-10-26T19:53:03.470Z,101338
2017-10-26T19:55:31.619Z,101322
2017-10-26T19:58:00.352Z,101344
2017-10-26T20:00:28.552Z,101330
2017-10-26T20:02:56.735Z,101334
2017-10-26T20:05:24.876Z,101339
2017-10-26T20:07:53.743Z,101336
2017-10-26T20:10:21.908Z,101327
2017-10-26T20:12:51.548Z,101340
2017-10-26T20:15:20.767Z,101346
2017-10-26T20:17:49.244Z,101342
2017-10-26T20:20:17.401Z,101346
2017-10-26T20:22:46.569Z,101347
2017-10-26T20:25:14.759Z,101351
2017-10-26T20:27:42.935Z,101376
2017-10-26T20:30:11.111Z,101337
2017-10-26T20:32:40.018Z,101340
2017-10-26T20:35:08.928Z,101350
2017-10-26T20:37:37.159Z,101337
2017-10-26T20:40:05.435Z,101341
2017-10-26T20:42:33.616Z,101318
2017-10-26T20:45:32.880Z,101322
2017-10-26T20:48:01.064Z,101306
2017-10-26T20:50:33.758Z,101309
2017-10-26T20:55:09.221Z,101303
2017-10-26T20:59:45.139Z,101305
2017-10-26T21:04:20.487Z,101306
2017-10-26T21:06:48.635Z,101291
2017-10-26T21:09:21.385Z,101296
2017-10-26T21:11:54.075Z,101296
2017-10-26T21:14:30.736Z,101283
2017-10-26T21:16:59.156Z,101271
2017-10-26T21:19:28.041Z,101284
2017-10-26T21:21:56.160Z,101278
2017-10-26T21:24:24.283Z,101278
2017-10-26T21:26:52.435Z,101277
2017-10-26T21:29:20.551Z,101275
2017-10-26T21:31:49.421Z,101273
2017-10-26T21:34:17.582Z,101262
2017-10-26T21:36:45.729Z,101268
2017-10-26T21:39:14.167Z,101265
2017-10-26T21:41:42.324Z,101265
2017-10-26T21:44:10.439Z,101266
2017-10-26T21:46:39.316Z,101267
2017-10-26T21:49:07.458Z,101266
2017-10-26T21:51:35.589Z,101263
2017-10-26T21:54:03.782Z,101251
2017-10-26T21:56:31.888Z,101263
2017-10-26T21:59:00.533Z,101254
2017-10-26T22:01:28.688Z,101238
2017-10-26T22:03:56.856Z,101238
2017-10-26T22:06:25.007Z,101239
2017-10-26T22:08:53.166Z,101232
2017-10-26T22:11:21.311Z,101237
2017-10-26T22:13:49.655Z,101242
2017-10-26T22:16:17.834Z,101241
2017-10-26T22:18:45.983Z,101240
2017-10-26T22:21:14.627Z,101248
2017-10-26T22:23:42.911Z,101222
2017-10-26T22:26:11.083Z,101237
2017-10-26T22:28:39.272Z,101238
2017-10-26T22:31:07.440Z,101228
2017-10-26T22:33:35.578Z,101237
2017-10-26T22:36:04.112Z,101238
2017-10-26T22:38:32.255Z,101227
2017-10-26T22:41:00.414Z,101235
2017-10-26T22:43:28.988Z,101233
2017-10-26T22:48:40.235Z,101238
2017-10-26T22:51:08.409Z,101232
2017-10-26T22:53:36.532Z,101231
2017-10-26T22:56:05.003Z,101227
2017-10-26T22:58:33.362Z,101223
2017-10-26T23:01:01.616Z,101220
2017-10-26T23:03:29.884Z,101214
2017-10-26T23:05:58.015Z,101216
2017-10-26T23:08:27.583Z,101210
2017-10-26T23:10:56.443Z,101210
2017-10-26T23:13:24.620Z,101218
2017-10-26T23:15:52.747Z,101215
2017-10-26T23:18:20.887Z,101221
2017-10-26T23:20:49.776Z,101224
2017-10-26T23:23:18.837Z,101231
2017-10-26T23:25:46.984Z,101218
2017-10-26T23:28:15.172Z,101227
2017-10-26T23:30:43.305Z,101213
2017-10-26T23:33:12.608Z,101219
2017-10-26T23:35:41.504Z,101225
2017-10-26T23:38:10.388Z,101214
2017-10-26T23:40:39.280Z,101206
2017-10-26T23:43:08.151Z,101214
2017-10-26T23:45:36.321Z,101207
2017-10-26T23:48:04.550Z,101212
2017-10-26T23:50:32.676Z,101220
2017-10-26T23:53:00.829Z,101212
2017-10-26T23:55:30.027Z,101213
2017-10-26T23:57:58.162Z,101222
